sensor_id;sensor_type;location;lat;lon;timestamp;P1;durP1;ratioP1;P2;durP2;ratioP2
65202;SDS011;51788;45.124;38.966;2023-12-20T00:01:37;26.95;;;17.50;;
65202;SDS011;51788;45.124;38.966;2023-12-20T00:04:03;28.33;;;17.27;;
65202;SDS011;51788;45.124;38.966;2023-12-20T00:06:30;37.40;;;19.33;;
65202;SDS011;51788;45.124;38.966;2023-12-20T00:08:56;28.92;;;17.30;;
65202;SDS011;51788;45.124;38.966;2023-12-20T00:11:23;27.00;;;16.80;;
65202;SDS011;51788;45.124;38.966;2023-12-20T00:13:49;27.40;;;16.00;;
65202;SDS011;51788;45.124;38.966;2023-12-20T00:16:16;20.88;;;14.07;;
65202;SDS011;51788;45.124;38.966;2023-12-20T00:18:42;21.27;;;12.82;;
65202;SDS011;51788;45.124;38.966;2023-12-20T00:21:08;17.92;;;11.60;;
65202;SDS011;51788;45.124;38.966;2023-12-20T00:23:34;12.80;;;9.27;;
65202;SDS011;51788;45.124;38.966;2023-12-20T00:26:00;11.80;;;8.40;;
65202;SDS011;51788;45.124;38.966;2023-12-20T00:28:26;11.32;;;7.15;;
65202;SDS011;51788;45.124;38.966;2023-12-20T00:30:52;6.13;;;5.60;;
65202;SDS011;51788;45.124;38.966;2023-12-20T00:33:18;6.93;;;5.82;;
65202;SDS011;51788;45.124;38.966;2023-12-20T00:35:44;5.88;;;5.35;;
65202;SDS011;51788;45.124;38.966;2023-12-20T00:38:10;11.93;;;5.60;;
65202;SDS011;51788;45.124;38.966;2023-12-20T00:40:37;5.25;;;4.78;;
65202;SDS011;51788;45.124;38.966;2023-12-20T00:43:03;9.05;;;5.57;;
65202;SDS011;51788;45.124;38.966;2023-12-20T00:45:29;6.35;;;4.50;;
65202;SDS011;51788;45.124;38.966;2023-12-20T00:47:55;6.38;;;4.38;;
65202;SDS011;51788;45.124;38.966;2023-12-20T00:50:21;4.07;;;3.78;;
65202;SDS011;51788;45.124;38.966;2023-12-20T00:52:47;4.38;;;3.97;;
65202;SDS011;51788;45.124;38.966;2023-12-20T00:55:14;5.32;;;3.50;;
65202;SDS011;51788;45.124;38.966;2023-12-20T00:57:40;4.63;;;4.20;;
65202;SDS011;51788;45.124;38.966;2023-12-20T01:00:06;8.43;;;3.80;;
65202;SDS011;51788;45.124;38.966;2023-12-20T01:02:35;5.72;;;4.00;;
65202;SDS011;51788;45.124;38.966;2023-12-20T01:05:01;10.05;;;4.40;;
65202;SDS011;51788;45.124;38.966;2023-12-20T01:07:28;9.75;;;3.63;;
65202;SDS011;51788;45.124;38.966;2023-12-20T01:09:54;7.47;;;4.68;;
65202;SDS011;51788;45.124;38.966;2023-12-20T01:12:20;6.03;;;3.47;;
65202;SDS011;51788;45.124;38.966;2023-12-20T01:14:46;4.88;;;3.38;;
65202;SDS011;51788;45.124;38.966;2023-12-20T01:17:12;4.50;;;3.80;;
65202;SDS011;51788;45.124;38.966;2023-12-20T01:19:38;4.30;;;3.33;;
65202;SDS011;51788;45.124;38.966;2023-12-20T01:22:04;4.85;;;3.25;;
65202;SDS011;51788;45.124;38.966;2023-12-20T01:24:30;5.53;;;4.22;;
65202;SDS011;51788;45.124;38.966;2023-12-20T01:26:56;2.97;;;2.78;;
65202;SDS011;51788;45.124;38.966;2023-12-20T01:29:22;5.47;;;3.45;;
65202;SDS011;51788;45.124;38.966;2023-12-20T01:31:48;3.65;;;2.90;;
65202;SDS011;51788;45.124;38.966;2023-12-20T01:34:14;3.53;;;3.22;;
65202;SDS011;51788;45.124;38.966;2023-12-20T01:36:40;6.50;;;3.35;;
65202;SDS011;51788;45.124;38.966;2023-12-20T01:39:06;5.28;;;2.65;;
65202;SDS011;51788;45.124;38.966;2023-12-20T01:41:32;3.13;;;2.92;;
65202;SDS011;51788;45.124;38.966;2023-12-20T01:43:58;4.75;;;3.88;;
65202;SDS011;51788;45.124;38.966;2023-12-20T01:46:23;3.97;;;3.17;;
65202;SDS011;51788;45.124;38.966;2023-12-20T01:48:51;4.88;;;3.00;;
65202;SDS011;51788;45.124;38.966;2023-12-20T01:51:17;4.93;;;3.60;;
65202;SDS011;51788;45.124;38.966;2023-12-20T01:53:44;3.38;;;3.08;;
65202;SDS011;51788;45.124;38.966;2023-12-20T01:56:10;3.58;;;3.28;;
65202;SDS011;51788;45.124;38.966;2023-12-20T01:58:37;3.30;;;3.10;;
65202;SDS011;51788;45.124;38.966;2023-12-20T02:01:07;3.22;;;2.85;;
65202;SDS011;51788;45.124;38.966;2023-12-20T02:03:34;5.93;;;3.30;;
65202;SDS011;51788;45.124;38.966;2023-12-20T02:06:02;4.00;;;3.28;;
65202;SDS011;51788;45.124;38.966;2023-12-20T02:08:29;6.15;;;2.65;;
65202;SDS011;51788;45.124;38.966;2023-12-20T02:10:55;8.90;;;3.38;;
65202;SDS011;51788;45.124;38.966;2023-12-20T02:13:22;3.97;;;3.50;;
65202;SDS011;51788;45.124;38.966;2023-12-20T02:15:48;3.42;;;3.15;;
65202;SDS011;51788;45.124;38.966;2023-12-20T02:18:14;3.20;;;3.00;;
65202;SDS011;51788;45.124;38.966;2023-12-20T02:20:42;3.88;;;3.45;;
65202;SDS011;51788;45.124;38.966;2023-12-20T02:23:08;8.48;;;3.50;;
65202;SDS011;51788;45.124;38.966;2023-12-20T02:25:34;3.42;;;3.13;;
65202;SDS011;51788;45.124;38.966;2023-12-20T02:28:00;4.15;;;3.40;;
65202;SDS011;51788;45.124;38.966;2023-12-20T02:30:26;5.13;;;3.20;;
65202;SDS011;51788;45.124;38.966;2023-12-20T02:32:52;2.85;;;2.63;;
65202;SDS011;51788;45.124;38.966;2023-12-20T02:35:19;3.25;;;2.95;;
65202;SDS011;51788;45.124;38.966;2023-12-20T02:37:45;3.38;;;3.17;;
65202;SDS011;51788;45.124;38.966;2023-12-20T02:40:11;3.58;;;3.20;;
65202;SDS011;51788;45.124;38.966;2023-12-20T02:42:37;4.80;;;3.22;;
65202;SDS011;51788;45.124;38.966;2023-12-20T02:45:03;3.50;;;3.20;;
65202;SDS011;51788;45.124;38.966;2023-12-20T02:47:29;3.22;;;2.97;;
65202;SDS011;51788;45.124;38.966;2023-12-20T02:49:55;5.63;;;3.13;;
65202;SDS011;51788;45.124;38.966;2023-12-20T02:52:22;6.85;;;3.33;;
65202;SDS011;51788;45.124;38.966;2023-12-20T02:54:49;3.88;;;3.03;;
65202;SDS011;51788;45.124;38.966;2023-12-20T02:57:15;4.82;;;2.72;;
65202;SDS011;51788;45.124;38.966;2023-12-20T02:59:41;4.40;;;3.22;;
65202;SDS011;51788;45.124;38.966;2023-12-20T03:02:07;4.10;;;3.30;;
65202;SDS011;51788;45.124;38.966;2023-12-20T03:04:33;3.38;;;3.17;;
65202;SDS011;51788;45.124;38.966;2023-12-20T03:06:59;3.97;;;3.67;;
65202;SDS011;51788;45.124;38.966;2023-12-20T03:09:25;3.60;;;3.28;;
65202;SDS011;51788;45.124;38.966;2023-12-20T03:11:51;3.85;;;3.25;;
65202;SDS011;51788;45.124;38.966;2023-12-20T03:14:17;4.13;;;3.00;;
65202;SDS011;51788;45.124;38.966;2023-12-20T03:16:46;6.28;;;4.00;;
65202;SDS011;51788;45.124;38.966;2023-12-20T03:19:16;4.05;;;2.65;;
65202;SDS011;51788;45.124;38.966;2023-12-20T03:21:42;3.45;;;3.08;;
65202;SDS011;51788;45.124;38.966;2023-12-20T03:24:08;2.85;;;2.28;;
65202;SDS011;51788;45.124;38.966;2023-12-20T03:26:34;4.40;;;3.10;;
65202;SDS011;51788;45.124;38.966;2023-12-20T03:29:00;3.03;;;2.53;;
65202;SDS011;51788;45.124;38.966;2023-12-20T03:31:26;4.43;;;2.47;;
65202;SDS011;51788;45.124;38.966;2023-12-20T03:33:52;3.08;;;2.88;;
65202;SDS011;51788;45.124;38.966;2023-12-20T03:36:19;4.53;;;2.80;;
65202;SDS011;51788;45.124;38.966;2023-12-20T03:38:45;3.67;;;2.65;;
65202;SDS011;51788;45.124;38.966;2023-12-20T03:41:11;4.20;;;3.33;;
65202;SDS011;51788;45.124;38.966;2023-12-20T03:43:37;3.53;;;3.22;;
65202;SDS011;51788;45.124;38.966;2023-12-20T03:46:03;3.70;;;3.45;;
65202;SDS011;51788;45.124;38.966;2023-12-20T03:48:30;5.90;;;3.95;;
65202;SDS011;51788;45.124;38.966;2023-12-20T03:50:56;3.90;;;3.13;;
65202;SDS011;51788;45.124;38.966;2023-12-20T03:53:22;3.50;;;3.25;;
65202;SDS011;51788;45.124;38.966;2023-12-20T03:55:48;3.22;;;2.70;;
65202;SDS011;51788;45.124;38.966;2023-12-20T03:58:14;2.72;;;2.53;;
65202;SDS011;51788;45.124;38.966;2023-12-20T04:00:40;3.30;;;2.72;;
65202;SDS011;51788;45.124;38.966;2023-12-20T04:03:06;2.83;;;2.60;;
65202;SDS011;51788;45.124;38.966;2023-12-20T04:05:33;3.22;;;2.80;;
65202;SDS011;51788;45.124;38.966;2023-12-20T04:07:59;4.85;;;2.40;;
65202;SDS011;51788;45.124;38.966;2023-12-20T04:10:26;3.08;;;2.85;;
65202;SDS011;51788;45.124;38.966;2023-12-20T04:12:53;2.72;;;2.53;;
65202;SDS011;51788;45.124;38.966;2023-12-20T04:15:20;2.92;;;2.72;;
65202;SDS011;51788;45.124;38.966;2023-12-20T04:17:46;6.32;;;2.63;;
65202;SDS011;51788;45.124;38.966;2023-12-20T04:20:12;2.53;;;2.40;;
65202;SDS011;51788;45.124;38.966;2023-12-20T04:22:38;2.47;;;2.28;;
65202;SDS011;51788;45.124;38.966;2023-12-20T04:25:04;4.20;;;2.45;;
65202;SDS011;51788;45.124;38.966;2023-12-20T04:27:30;3.25;;;2.42;;
65202;SDS011;51788;45.124;38.966;2023-12-20T04:29:56;2.30;;;2.20;;
65202;SDS011;51788;45.124;38.966;2023-12-20T04:32:22;2.60;;;2.40;;
65202;SDS011;51788;45.124;38.966;2023-12-20T04:34:48;2.55;;;2.33;;
65202;SDS011;51788;45.124;38.966;2023-12-20T04:37:14;3.03;;;2.00;;
65202;SDS011;51788;45.124;38.966;2023-12-20T04:39:40;2.10;;;2.00;;
65202;SDS011;51788;45.124;38.966;2023-12-20T04:42:07;4.68;;;2.20;;
65202;SDS011;51788;45.124;38.966;2023-12-20T04:44:33;2.55;;;2.28;;
65202;SDS011;51788;45.124;38.966;2023-12-20T04:46:59;2.70;;;2.38;;
65202;SDS011;51788;45.124;38.966;2023-12-20T04:49:25;2.13;;;2.03;;
65202;SDS011;51788;45.124;38.966;2023-12-20T04:51:51;2.63;;;2.50;;
65202;SDS011;51788;45.124;38.966;2023-12-20T04:54:18;2.75;;;2.38;;
65202;SDS011;51788;45.124;38.966;2023-12-20T04:56:44;3.08;;;2.20;;
65202;SDS011;51788;45.124;38.966;2023-12-20T04:59:10;3.03;;;2.65;;
65202;SDS011;51788;45.124;38.966;2023-12-20T05:01:36;3.00;;;2.55;;
65202;SDS011;51788;45.124;38.966;2023-12-20T05:04:02;2.50;;;2.30;;
65202;SDS011;51788;45.124;38.966;2023-12-20T05:06:28;2.72;;;2.53;;
65202;SDS011;51788;45.124;38.966;2023-12-20T05:08:54;2.90;;;2.70;;
65202;SDS011;51788;45.124;38.966;2023-12-20T05:11:20;3.25;;;2.70;;
65202;SDS011;51788;45.124;38.966;2023-12-20T05:13:46;3.63;;;2.67;;
65202;SDS011;51788;45.124;38.966;2023-12-20T05:16:12;3.13;;;2.90;;
65202;SDS011;51788;45.124;38.966;2023-12-20T05:18:39;3.35;;;3.00;;
65202;SDS011;51788;45.124;38.966;2023-12-20T05:21:05;3.05;;;2.85;;
65202;SDS011;51788;45.124;38.966;2023-12-20T05:23:32;3.25;;;3.05;;
65202;SDS011;51788;45.124;38.966;2023-12-20T05:25:58;5.78;;;3.30;;
65202;SDS011;51788;45.124;38.966;2023-12-20T05:28:24;4.72;;;3.22;;
65202;SDS011;51788;45.124;38.966;2023-12-20T05:30:51;5.07;;;2.78;;
65202;SDS011;51788;45.124;38.966;2023-12-20T05:33:17;4.32;;;3.05;;
65202;SDS011;51788;45.124;38.966;2023-12-20T05:35:43;3.15;;;2.92;;
65202;SDS011;51788;45.124;38.966;2023-12-20T05:38:09;3.40;;;3.10;;
65202;SDS011;51788;45.124;38.966;2023-12-20T05:40:35;3.15;;;2.95;;
65202;SDS011;51788;45.124;38.966;2023-12-20T05:43:01;12.40;;;3.40;;
65202;SDS011;51788;45.124;38.966;2023-12-20T05:45:27;5.30;;;3.63;;
65202;SDS011;51788;45.124;38.966;2023-12-20T05:47:53;3.97;;;3.58;;
65202;SDS011;51788;45.124;38.966;2023-12-20T05:50:19;5.35;;;3.78;;
65202;SDS011;51788;45.124;38.966;2023-12-20T05:52:46;4.68;;;4.03;;
65202;SDS011;51788;45.124;38.966;2023-12-20T05:55:12;8.93;;;4.30;;
65202;SDS011;51788;45.124;38.966;2023-12-20T05:57:38;4.53;;;4.15;;
65202;SDS011;51788;45.124;38.966;2023-12-20T06:00:04;8.63;;;3.70;;
65202;SDS011;51788;45.124;38.966;2023-12-20T06:02:37;8.45;;;4.38;;
65202;SDS011;51788;45.124;38.966;2023-12-20T06:05:06;6.43;;;3.97;;
65202;SDS011;51788;45.124;38.966;2023-12-20T06:07:32;7.80;;;4.38;;
65202;SDS011;51788;45.124;38.966;2023-12-20T06:09:58;4.97;;;4.38;;
65202;SDS011;51788;45.124;38.966;2023-12-20T06:12:24;4.13;;;3.75;;
65202;SDS011;51788;45.124;38.966;2023-12-20T06:14:52;7.63;;;3.40;;
65202;SDS011;51788;45.124;38.966;2023-12-20T06:17:18;4.38;;;3.97;;
65202;SDS011;51788;45.124;38.966;2023-12-20T06:19:44;3.78;;;3.47;;
65202;SDS011;51788;45.124;38.966;2023-12-20T06:22:14;3.50;;;2.78;;
65202;SDS011;51788;45.124;38.966;2023-12-20T06:24:40;4.15;;;3.70;;
65202;SDS011;51788;45.124;38.966;2023-12-20T06:27:06;4.60;;;3.72;;
65202;SDS011;51788;45.124;38.966;2023-12-20T06:29:32;4.70;;;4.30;;
65202;SDS011;51788;45.124;38.966;2023-12-20T06:32:00;4.38;;;4.00;;
65202;SDS011;51788;45.124;38.966;2023-12-20T06:34:26;5.70;;;4.25;;
65202;SDS011;51788;45.124;38.966;2023-12-20T06:36:52;4.53;;;4.22;;
65202;SDS011;51788;45.124;38.966;2023-12-20T06:39:18;5.50;;;4.60;;
65202;SDS011;51788;45.124;38.966;2023-12-20T06:41:43;4.70;;;4.30;;
65202;SDS011;51788;45.124;38.966;2023-12-20T06:44:09;7.03;;;5.22;;
65202;SDS011;51788;45.124;38.966;2023-12-20T06:46:35;7.57;;;6.55;;
65202;SDS011;51788;45.124;38.966;2023-12-20T06:49:01;13.85;;;7.22;;
65202;SDS011;51788;45.124;38.966;2023-12-20T06:51:27;8.32;;;6.68;;
65202;SDS011;51788;45.124;38.966;2023-12-20T06:53:53;17.58;;;9.93;;
65202;SDS011;51788;45.124;38.966;2023-12-20T06:56:19;11.43;;;7.07;;
65202;SDS011;51788;45.124;38.966;2023-12-20T06:58:45;14.43;;;6.00;;
65202;SDS011;51788;45.124;38.966;2023-12-20T07:01:12;28.83;;;7.55;;
65202;SDS011;51788;45.124;38.966;2023-12-20T07:03:39;9.52;;;6.20;;
65202;SDS011;51788;45.124;38.966;2023-12-20T07:06:09;12.90;;;6.03;;
65202;SDS011;51788;45.124;38.966;2023-12-20T07:08:35;6.10;;;4.78;;
65202;SDS011;51788;45.124;38.966;2023-12-20T07:11:01;4.82;;;4.28;;
65202;SDS011;51788;45.124;38.966;2023-12-20T07:13:27;11.82;;;4.60;;
65202;SDS011;51788;45.124;38.966;2023-12-20T07:15:53;9.55;;;4.13;;
65202;SDS011;51788;45.124;38.966;2023-12-20T07:18:19;5.10;;;3.75;;
65202;SDS011;51788;45.124;38.966;2023-12-20T07:20:45;5.45;;;4.03;;
65202;SDS011;51788;45.124;38.966;2023-12-20T07:23:11;6.53;;;3.33;;
65202;SDS011;51788;45.124;38.966;2023-12-20T07:25:37;4.38;;;3.55;;
65202;SDS011;51788;45.124;38.966;2023-12-20T07:28:03;4.75;;;4.03;;
65202;SDS011;51788;45.124;38.966;2023-12-20T07:30:30;4.20;;;3.72;;
65202;SDS011;51788;45.124;38.966;2023-12-20T07:32:56;6.88;;;4.05;;
65202;SDS011;51788;45.124;38.966;2023-12-20T07:35:23;4.35;;;3.95;;
65202;SDS011;51788;45.124;38.966;2023-12-20T07:37:50;5.65;;;3.90;;
65202;SDS011;51788;45.124;38.966;2023-12-20T07:40:16;3.60;;;2.88;;
65202;SDS011;51788;45.124;38.966;2023-12-20T07:42:42;2.90;;;2.70;;
65202;SDS011;51788;45.124;38.966;2023-12-20T07:45:08;2.97;;;2.78;;
65202;SDS011;51788;45.124;38.966;2023-12-20T07:47:36;4.50;;;2.58;;
65202;SDS011;51788;45.124;38.966;2023-12-20T07:50:02;3.97;;;2.88;;
65202;SDS011;51788;45.124;38.966;2023-12-20T07:52:31;2.60;;;2.40;;
65202;SDS011;51788;45.124;38.966;2023-12-20T07:54:57;8.18;;;2.95;;
65202;SDS011;51788;45.124;38.966;2023-12-20T07:57:23;3.83;;;2.33;;
65202;SDS011;51788;45.124;38.966;2023-12-20T07:59:49;2.85;;;2.40;;
65202;SDS011;51788;45.124;38.966;2023-12-20T08:02:16;3.25;;;2.58;;
65202;SDS011;51788;45.124;38.966;2023-12-20T08:04:42;2.63;;;2.42;;
65202;SDS011;51788;45.124;38.966;2023-12-20T08:07:08;3.25;;;2.22;;
65202;SDS011;51788;45.124;38.966;2023-12-20T08:09:34;7.75;;;2.80;;
65202;SDS011;51788;45.124;38.966;2023-12-20T08:12:02;3.67;;;3.17;;
65202;SDS011;51788;45.124;38.966;2023-12-20T08:14:28;3.88;;;2.88;;
65202;SDS011;51788;45.124;38.966;2023-12-20T08:16:54;5.97;;;3.30;;
65202;SDS011;51788;45.124;38.966;2023-12-20T08:19:20;4.00;;;2.60;;
65202;SDS011;51788;45.124;38.966;2023-12-20T08:21:46;7.60;;;2.30;;
65202;SDS011;51788;45.124;38.966;2023-12-20T08:24:12;3.15;;;2.25;;
65202;SDS011;51788;45.124;38.966;2023-12-20T08:26:38;2.78;;;2.58;;
65202;SDS011;51788;45.124;38.966;2023-12-20T08:29:03;3.58;;;2.65;;
65202;SDS011;51788;45.124;38.966;2023-12-20T08:31:29;4.70;;;2.92;;
65202;SDS011;51788;45.124;38.966;2023-12-20T08:33:55;5.22;;;2.63;;
65202;SDS011;51788;45.124;38.966;2023-12-20T08:36:22;6.03;;;2.67;;
65202;SDS011;51788;45.124;38.966;2023-12-20T08:38:48;2.72;;;2.45;;
65202;SDS011;51788;45.124;38.966;2023-12-20T08:41:15;2.60;;;2.40;;
65202;SDS011;51788;45.124;38.966;2023-12-20T08:43:42;3.03;;;2.78;;
65202;SDS011;51788;45.124;38.966;2023-12-20T08:46:08;3.80;;;2.50;;
65202;SDS011;51788;45.124;38.966;2023-12-20T08:48:35;2.47;;;2.28;;
65202;SDS011;51788;45.124;38.966;2023-12-20T08:51:01;2.47;;;2.28;;
65202;SDS011;51788;45.124;38.966;2023-12-20T08:53:27;3.80;;;2.70;;
65202;SDS011;51788;45.124;38.966;2023-12-20T08:55:53;6.65;;;3.40;;
65202;SDS011;51788;45.124;38.966;2023-12-20T08:58:19;4.70;;;3.20;;
65202;SDS011;51788;45.124;38.966;2023-12-20T09:00:45;5.60;;;2.70;;
65202;SDS011;51788;45.124;38.966;2023-12-20T09:03:11;2.65;;;2.45;;
65202;SDS011;51788;45.124;38.966;2023-12-20T09:05:37;6.28;;;2.83;;
65202;SDS011;51788;45.124;38.966;2023-12-20T09:08:03;3.65;;;3.17;;
65202;SDS011;51788;45.124;38.966;2023-12-20T09:10:29;3.35;;;2.58;;
65202;SDS011;51788;45.124;38.966;2023-12-20T09:12:55;2.70;;;2.50;;
65202;SDS011;51788;45.124;38.966;2023-12-20T09:15:25;5.32;;;2.53;;
65202;SDS011;51788;45.124;38.966;2023-12-20T09:17:52;10.30;;;2.63;;
65202;SDS011;51788;45.124;38.966;2023-12-20T09:20:19;3.67;;;2.25;;
65202;SDS011;51788;45.124;38.966;2023-12-20T09:22:45;3.42;;;2.22;;
65202;SDS011;51788;45.124;38.966;2023-12-20T09:25:11;2.67;;;2.20;;
65202;SDS011;51788;45.124;38.966;2023-12-20T09:27:38;2.10;;;1.90;;
65202;SDS011;51788;45.124;38.966;2023-12-20T09:30:04;3.25;;;1.92;;
65202;SDS011;51788;45.124;38.966;2023-12-20T09:32:31;3.88;;;2.17;;
65202;SDS011;51788;45.124;38.966;2023-12-20T09:34:57;4.88;;;1.90;;
65202;SDS011;51788;45.124;38.966;2023-12-20T09:37:26;4.22;;;1.92;;
65202;SDS011;51788;45.124;38.966;2023-12-20T09:39:52;6.45;;;1.85;;
65202;SDS011;51788;45.124;38.966;2023-12-20T09:42:29;7.63;;;2.15;;
65202;SDS011;51788;45.124;38.966;2023-12-20T09:45:17;2.78;;;1.80;;
65202;SDS011;51788;45.124;38.966;2023-12-20T09:47:47;5.68;;;2.00;;
65202;SDS011;51788;45.124;38.966;2023-12-20T09:50:18;2.50;;;1.90;;
65202;SDS011;51788;45.124;38.966;2023-12-20T09:52:46;4.15;;;2.03;;
65202;SDS011;51788;45.124;38.966;2023-12-20T09:55:17;1.48;;;1.45;;
65202;SDS011;51788;45.124;38.966;2023-12-20T09:57:44;1.60;;;1.50;;
65202;SDS011;51788;45.124;38.966;2023-12-20T10:00:14;3.50;;;1.85;;
65202;SDS011;51788;45.124;38.966;2023-12-20T10:02:50;1.95;;;1.85;;
65202;SDS011;51788;45.124;38.966;2023-12-20T10:05:26;4.57;;;1.40;;
65202;SDS011;51788;45.124;38.966;2023-12-20T10:07:53;1.75;;;1.65;;
65202;SDS011;51788;45.124;38.966;2023-12-20T10:10:19;3.17;;;1.60;;
65202;SDS011;51788;45.124;38.966;2023-12-20T10:13:01;3.13;;;1.80;;
65202;SDS011;51788;45.124;38.966;2023-12-20T10:15:32;2.00;;;1.90;;
65202;SDS011;51788;45.124;38.966;2023-12-20T10:17:59;7.25;;;2.15;;
65202;SDS011;51788;45.124;38.966;2023-12-20T10:20:27;17.35;;;1.77;;
65202;SDS011;51788;45.124;38.966;2023-12-20T10:22:55;3.05;;;1.52;;
65202;SDS011;51788;45.124;38.966;2023-12-20T10:25:21;1.35;;;1.25;;
65202;SDS011;51788;45.124;38.966;2023-12-20T10:27:49;1.58;;;1.48;;
65202;SDS011;51788;45.124;38.966;2023-12-20T10:30:15;4.00;;;1.65;;
65202;SDS011;51788;45.124;38.966;2023-12-20T10:32:41;2.97;;;1.95;;
65202;SDS011;51788;45.124;38.966;2023-12-20T10:35:08;1.67;;;1.58;;
65202;SDS011;51788;45.124;38.966;2023-12-20T10:37:35;3.85;;;1.50;;
65202;SDS011;51788;45.124;38.966;2023-12-20T10:40:03;2.72;;;1.27;;
65202;SDS011;51788;45.124;38.966;2023-12-20T10:42:31;1.60;;;1.50;;
65202;SDS011;51788;45.124;38.966;2023-12-20T10:44:59;1.77;;;1.67;;
65202;SDS011;51788;45.124;38.966;2023-12-20T10:47:25;1.30;;;1.20;;
65202;SDS011;51788;45.124;38.966;2023-12-20T10:49:53;1.17;;;1.13;;
65202;SDS011;51788;45.124;38.966;2023-12-20T10:52:20;1.58;;;1.48;;
65202;SDS011;51788;45.124;38.966;2023-12-20T10:54:49;1.90;;;1.63;;
65202;SDS011;51788;45.124;38.966;2023-12-20T10:57:15;4.18;;;1.70;;
65202;SDS011;51788;45.124;38.966;2023-12-20T10:59:43;1.65;;;1.33;;
65202;SDS011;51788;45.124;38.966;2023-12-20T11:02:13;1.50;;;1.40;;
65202;SDS011;51788;45.124;38.966;2023-12-20T11:04:42;2.90;;;1.52;;
65202;SDS011;51788;45.124;38.966;2023-12-20T11:07:26;2.72;;;1.63;;
65202;SDS011;51788;45.124;38.966;2023-12-20T11:10:03;2.35;;;1.80;;
65202;SDS011;51788;45.124;38.966;2023-12-20T11:12:52;1.40;;;1.30;;
65202;SDS011;51788;45.124;38.966;2023-12-20T11:15:22;2.58;;;1.45;;
65202;SDS011;51788;45.124;38.966;2023-12-20T11:17:56;8.27;;;1.50;;
65202;SDS011;51788;45.124;38.966;2023-12-20T11:20:24;2.15;;;1.50;;
65202;SDS011;51788;45.124;38.966;2023-12-20T11:23:04;1.98;;;1.13;;
65202;SDS011;51788;45.124;38.966;2023-12-20T11:28:13;2.63;;;1.38;;
65202;SDS011;51788;45.124;38.966;2023-12-20T11:33:15;2.05;;;1.95;;
65202;SDS011;51788;45.124;38.966;2023-12-20T11:35:42;2.60;;;1.63;;
65202;SDS011;51788;45.124;38.966;2023-12-20T11:38:10;2.75;;;1.55;;
65202;SDS011;51788;45.124;38.966;2023-12-20T11:40:37;3.03;;;1.65;;
65202;SDS011;51788;45.124;38.966;2023-12-20T11:43:03;2.08;;;1.80;;
65202;SDS011;51788;45.124;38.966;2023-12-20T11:45:33;1.60;;;1.50;;
65202;SDS011;51788;45.124;38.966;2023-12-20T11:48:02;5.00;;;1.42;;
65202;SDS011;51788;45.124;38.966;2023-12-20T11:50:29;5.32;;;1.75;;
65202;SDS011;51788;45.124;38.966;2023-12-20T11:52:56;4.45;;;1.85;;
65202;SDS011;51788;45.124;38.966;2023-12-20T11:55:22;2.17;;;1.52;;
65202;SDS011;51788;45.124;38.966;2023-12-20T11:57:51;4.43;;;1.75;;
65202;SDS011;51788;45.124;38.966;2023-12-20T12:00:18;1.50;;;1.40;;
65202;SDS011;51788;45.124;38.966;2023-12-20T12:02:54;2.05;;;1.83;;
65202;SDS011;51788;45.124;38.966;2023-12-20T12:05:24;1.67;;;1.50;;
65202;SDS011;51788;45.124;38.966;2023-12-20T12:07:50;2.50;;;1.92;;
65202;SDS011;51788;45.124;38.966;2023-12-20T12:10:16;1.67;;;1.58;;
65202;SDS011;51788;45.124;38.966;2023-12-20T12:12:42;1.90;;;1.80;;
65202;SDS011;51788;45.124;38.966;2023-12-20T12:15:08;1.80;;;1.70;;
65202;SDS011;51788;45.124;38.966;2023-12-20T12:17:34;2.22;;;1.85;;
65202;SDS011;51788;45.124;38.966;2023-12-20T12:20:04;4.32;;;2.20;;
65202;SDS011;51788;45.124;38.966;2023-12-20T12:22:31;1.95;;;1.27;;
65202;SDS011;51788;45.124;38.966;2023-12-20T12:25:09;1.77;;;1.42;;
65202;SDS011;51788;45.124;38.966;2023-12-20T12:27:40;1.45;;;1.35;;
65202;SDS011;51788;45.124;38.966;2023-12-20T12:30:06;2.88;;;1.25;;
65202;SDS011;51788;45.124;38.966;2023-12-20T12:32:35;2.17;;;1.60;;
65202;SDS011;51788;45.124;38.966;2023-12-20T12:35:04;5.38;;;1.50;;
65202;SDS011;51788;45.124;38.966;2023-12-20T12:37:33;1.70;;;1.60;;
65202;SDS011;51788;45.124;38.966;2023-12-20T12:40:00;1.45;;;1.35;;
65202;SDS011;51788;45.124;38.966;2023-12-20T12:42:26;5.85;;;2.38;;
65202;SDS011;51788;45.124;38.966;2023-12-20T12:44:54;2.63;;;2.10;;
65202;SDS011;51788;45.124;38.966;2023-12-20T12:47:21;2.50;;;2.30;;
65202;SDS011;51788;45.124;38.966;2023-12-20T12:49:49;1.98;;;1.88;;
65202;SDS011;51788;45.124;38.966;2023-12-20T12:52:16;8.38;;;1.80;;
65202;SDS011;51788;45.124;38.966;2023-12-20T12:54:45;4.78;;;1.63;;
65202;SDS011;51788;45.124;38.966;2023-12-20T12:57:13;1.95;;;1.83;;
65202;SDS011;51788;45.124;38.966;2023-12-20T12:59:40;6.45;;;2.22;;
65202;SDS011;51788;45.124;38.966;2023-12-20T13:02:06;9.60;;;2.50;;
65202;SDS011;51788;45.124;38.966;2023-12-20T13:04:33;6.60;;;2.10;;
65202;SDS011;51788;45.124;38.966;2023-12-20T13:06:59;3.75;;;1.63;;
65202;SDS011;51788;45.124;38.966;2023-12-20T13:09:25;1.67;;;1.58;;
65202;SDS011;51788;45.124;38.966;2023-12-20T13:11:51;2.35;;;1.70;;
65202;SDS011;51788;45.124;38.966;2023-12-20T13:14:17;1.73;;;1.63;;
65202;SDS011;51788;45.124;38.966;2023-12-20T13:16:43;5.97;;;1.42;;
65202;SDS011;51788;45.124;38.966;2023-12-20T13:19:11;5.88;;;1.85;;
65202;SDS011;51788;45.124;38.966;2023-12-20T13:21:37;3.85;;;2.17;;
65202;SDS011;51788;45.124;38.966;2023-12-20T13:24:03;3.05;;;2.38;;
65202;SDS011;51788;45.124;38.966;2023-12-20T13:26:29;4.85;;;1.98;;
65202;SDS011;51788;45.124;38.966;2023-12-20T13:28:55;1.50;;;1.45;;
65202;SDS011;51788;45.124;38.966;2023-12-20T13:31:21;3.92;;;2.42;;
65202;SDS011;51788;45.124;38.966;2023-12-20T13:33:47;7.13;;;1.90;;
65202;SDS011;51788;45.124;38.966;2023-12-20T13:36:13;1.92;;;1.83;;
65202;SDS011;51788;45.124;38.966;2023-12-20T13:38:39;8.48;;;2.78;;
65202;SDS011;51788;45.124;38.966;2023-12-20T13:41:05;5.47;;;1.90;;
65202;SDS011;51788;45.124;38.966;2023-12-20T13:43:31;5.82;;;1.83;;
65202;SDS011;51788;45.124;38.966;2023-12-20T13:45:58;2.50;;;2.10;;
65202;SDS011;51788;45.124;38.966;2023-12-20T13:48:24;2.22;;;2.03;;
65202;SDS011;51788;45.124;38.966;2023-12-20T13:50:50;8.88;;;2.00;;
65202;SDS011;51788;45.124;38.966;2023-12-20T13:53:16;1.80;;;1.70;;
65202;SDS011;51788;45.124;38.966;2023-12-20T13:55:43;4.70;;;2.40;;
65202;SDS011;51788;45.124;38.966;2023-12-20T13:58:09;2.08;;;1.95;;
65202;SDS011;51788;45.124;38.966;2023-12-20T14:00:37;13.18;;;2.63;;
65202;SDS011;51788;45.124;38.966;2023-12-20T14:03:04;5.68;;;2.47;;
65202;SDS011;51788;45.124;38.966;2023-12-20T14:05:30;15.52;;;3.38;;
65202;SDS011;51788;45.124;38.966;2023-12-20T14:07:56;11.65;;;3.40;;
65202;SDS011;51788;45.124;38.966;2023-12-20T14:10:23;15.48;;;3.88;;
65202;SDS011;51788;45.124;38.966;2023-12-20T14:12:52;13.35;;;4.82;;
65202;SDS011;51788;45.124;38.966;2023-12-20T14:15:19;13.93;;;4.18;;
65202;SDS011;51788;45.124;38.966;2023-12-20T14:17:44;13.23;;;4.50;;
65202;SDS011;51788;45.124;38.966;2023-12-20T14:20:11;14.02;;;4.60;;
65202;SDS011;51788;45.124;38.966;2023-12-20T14:22:40;9.60;;;5.00;;
65202;SDS011;51788;45.124;38.966;2023-12-20T14:25:13;12.55;;;5.20;;
65202;SDS011;51788;45.124;38.966;2023-12-20T14:27:40;9.15;;;4.80;;
65202;SDS011;51788;45.124;38.966;2023-12-20T14:30:08;20.05;;;6.93;;
65202;SDS011;51788;45.124;38.966;2023-12-20T14:32:35;23.15;;;8.13;;
65202;SDS011;51788;45.124;38.966;2023-12-20T14:35:07;15.93;;;6.72;;
65202;SDS011;51788;45.124;38.966;2023-12-20T14:37:34;15.55;;;7.82;;